Time;durP1;ratioP1;P1;durP2;ratioP2;P2;SDS_P1;SDS_P2;PMS_P1;PMS_P2;Temp;Humidity;BMP_temperature;BMP_pressure;BME280_temperature;BME280_humidity;BME280_pressure;Samples;Min_cycle;Max_cycle;Signal;HPM_P1;HPM_P2
2022/08/09 00:00:41;;;;;;;11.00;9.90;;;;;;;;;;4959111;28;20178;-46
2022/08/09 00:03:07;;;;;;;9.50;8.60;;;;;;;;;;4957172;28;20458;-46
2022/08/09 00:05:33;;;;;;;9.03;8.13;;;;;;;;;;4955001;28;21073;-45
2022/08/09 00:07:59;;;;;;;11.43;8.60;;;;;;;;;;4954573;28;20551;-46
2022/08/09 00:10:25;;;;;;;10.17;7.60;;;;;;;;;;4957974;28;20595;-45
2022/08/09 00:12:51;;;;;;;8.03;7.23;;;;;;;;;;4958205;28;20190;-46
2022/08/09 00:15:17;;;;;;;12.07;7.80;;;;;;;;;;4955679;28;20186;-46
2022/08/09 00:17:44;;;;;;;8.20;7.20;;;;;;;;;;4953020;28;20591;-45
2022/08/09 00:20:10;;;;;;;10.73;7.77;;;;;;;;;;4959134;28;20193;-45
2022/08/09 00:22:36;;;;;;;10.70;7.20;;;;;;;;;;4955922;28;20373;-45
2022/08/09 00:25:02;;;;;;;10.13;7.03;;;;;;;;;;4955357;28;20709;-46
2022/08/09 00:27:28;;;;;;;8.63;7.40;;;;;;;;;;4954597;28;20305;-45
2022/08/09 00:29:54;;;;;;;10.97;7.30;;;;;;;;;;4957677;28;20292;-45
2022/08/09 00:32:21;;;;;;;8.87;7.03;;;;;;;;;;4968073;28;20324;-45
2022/08/09 00:34:47;;;;;;;12.73;8.30;;;;;;;;;;4954870;28;20774;-46
2022/08/09 00:37:14;;;;;;;10.33;7.23;;;;;;;;;;4958116;28;20587;-45
2022/08/09 00:39:40;;;;;;;9.63;7.23;;;;;;;;;;4955224;28;20952;-46
2022/08/09 00:42:06;;;;;;;10.43;8.00;;;;;;;;;;4945645;28;20182;-45
2022/08/09 00:44:32;;;;;;;8.90;7.47;;;;;;;;;;4958330;28;20182;-45
2022/08/09 00:46:58;;;;;;;13.30;7.67;;;;;;;;;;4956029;28;20876;-46
2022/08/09 00:49:25;;;;;;;9.93;7.73;;;;;;;;;;4952237;28;20213;-45
2022/08/09 00:51:51;;;;;;;7.80;7.00;;;;;;;;;;4955745;28;20182;-45
2022/08/09 00:54:17;;;;;;;8.60;6.60;;;;;;;;;;4957104;28;20789;-45
2022/08/09 00:56:43;;;;;;;9.80;7.10;;;;;;;;;;4953070;28;20182;-45
2022/08/09 00:59:09;;;;;;;9.63;7.00;;;;;;;;;;4955398;28;20443;-45
2022/08/09 01:01:37;;;;;;;8.20;6.37;;;;;;;;;;4957571;28;20775;-45
2022/08/09 01:04:08;;;;;;;9.20;6.53;;;;;;;;;;4955699;28;20178;-45
2022/08/09 01:06:47;;;;;;;10.90;6.93;;;;;;;;;;4984024;28;20325;-45
2022/08/09 01:09:24;;;;;;;9.97;7.13;;;;;;;;;;4953333;28;20198;-46
2022/08/09 01:11:53;;;;;;;8.30;6.87;;;;;;;;;;4956721;28;20174;-45
2022/08/09 01:14:34;;;;;;;7.63;6.67;;;;;;;;;;4954724;28;20870;-45
2022/08/09 01:17:03;;;;;;;8.20;6.60;;;;;;;;;;4953297;28;20175;-45
2022/08/09 01:19:29;;;;;;;8.97;6.63;;;;;;;;;;4956635;28;20810;-45
2022/08/09 01:22:07;;;;;;;13.07;7.30;;;;;;;;;;4956989;28;20625;-46
2022/08/09 01:24:48;;;;;;;10.63;6.47;;;;;;;;;;4955312;28;20804;-45
2022/08/09 01:27:16;;;;;;;12.60;6.47;;;;;;;;;;4956778;28;20936;-45
2022/08/09 01:29:53;;;;;;;9.63;6.70;;;;;;;;;;4953193;28;20202;-45
2022/08/09 01:32:20;;;;;;;8.27;6.73;;;;;;;;;;4954401;28;20181;-45
2022/08/09 01:34:47;;;;;;;9.80;6.43;;;;;;;;;;4954600;28;20616;-45
2022/08/09 01:37:15;;;;;;;10.33;6.83;;;;;;;;;;4953595;28;20261;-45
2022/08/09 01:39:44;;;;;;;10.10;6.70;;;;;;;;;;4952172;28;20190;-46
2022/08/09 01:42:10;;;;;;;8.40;6.73;;;;;;;;;;4953999;28;20313;-46
2022/08/09 01:44:37;;;;;;;9.27;6.57;;;;;;;;;;4955815;28;20945;-45
2022/08/09 01:47:04;;;;;;;8.07;7.00;;;;;;;;;;4952838;28;20357;-45
2022/08/09 01:49:31;;;;;;;9.73;6.57;;;;;;;;;;4949752;28;20362;-46
2022/08/09 01:52:04;;;;;;;10.60;6.37;;;;;;;;;;4956322;28;20680;-45
2022/08/09 01:54:32;;;;;;;7.97;5.93;;;;;;;;;;4953254;28;20565;-46
2022/08/09 01:56:59;;;;;;;10.80;6.17;;;;;;;;;;4954716;28;20178;-46
2022/08/09 01:59:27;;;;;;;11.50;7.10;;;;;;;;;;4956899;28;20633;-45
2022/08/09 02:01:54;;;;;;;8.70;6.17;;;;;;;;;;4952663;28;20190;-46
2022/08/09 02:04:21;;;;;;;11.97;7.73;;;;;;;;;;4951543;28;20275;-45
2022/08/09 02:07:07;;;;;;;9.30;6.90;;;;;;;;;;4954992;28;20178;-45
2022/08/09 02:09:34;;;;;;;9.10;6.63;;;;;;;;;;4954555;28;21576;-46
2022/08/09 02:12:01;;;;;;;7.30;6.50;;;;;;;;;;4954073;28;20248;-45
2022/08/09 02:14:28;;;;;;;7.63;6.23;;;;;;;;;;4953354;28;20173;-45
2022/08/09 02:16:55;;;;;;;7.07;6.37;;;;;;;;;;4953733;28;20205;-46
2022/08/09 02:19:22;;;;;;;7.80;6.93;;;;;;;;;;4953046;28;20182;-46
2022/08/09 02:21:51;;;;;;;8.40;6.67;;;;;;;;;;4954327;28;20532;-46
2022/08/09 02:24:20;;;;;;;9.80;7.13;;;;;;;;;;4957191;28;20655;-45
2022/08/09 02:26:47;;;;;;;8.40;6.73;;;;;;;;;;4953467;28;21014;-45
2022/08/09 02:29:20;;;;;;;8.63;6.73;;;;;;;;;;4953152;28;20504;-45
2022/08/09 02:31:47;;;;;;;9.63;7.20;;;;;;;;;;4955628;28;20449;-45
2022/08/09 02:34:15;;;;;;;9.17;7.70;;;;;;;;;;4967926;28;20470;-45
2022/08/09 02:36:42;;;;;;;9.30;7.47;;;;;;;;;;4952922;28;20301;-45
2022/08/09 02:39:12;;;;;;;12.67;8.00;;;;;;;;;;4956899;28;20190;-46
2022/08/09 02:41:38;;;;;;;10.77;7.87;;;;;;;;;;4952267;28;20483;-45
2022/08/09 02:44:06;;;;;;;10.53;8.27;;;;;;;;;;4952500;28;20726;-46
2022/08/09 02:46:33;;;;;;;11.43;9.43;;;;;;;;;;4954755;28;20186;-45
2022/08/09 02:49:02;;;;;;;14.17;9.50;;;;;;;;;;4954535;28;20210;-46
2022/08/09 02:51:30;;;;;;;12.13;8.57;;;;;;;;;;4953534;28;20599;-45
2022/08/09 02:53:58;;;;;;;10.87;8.63;;;;;;;;;;4959635;28;20177;-45
2022/08/09 02:56:25;;;;;;;10.53;9.43;;;;;;;;;;4957361;28;20241;-45
2022/08/09 02:58:52;;;;;;;12.20;9.57;;;;;;;;;;4956100;28;20694;-45
2022/08/09 03:01:18;;;;;;;14.57;10.97;;;;;;;;;;4956929;28;20693;-45
2022/08/09 03:03:45;;;;;;;11.63;10.33;;;;;;;;;;4958801;28;20678;-45
2022/08/09 03:06:13;;;;;;;12.67;9.73;;;;;;;;;;4956138;28;20193;-45
2022/08/09 03:08:50;;;;;;;16.07;10.40;;;;;;;;;;4955579;28;20206;-45
2022/08/09 03:11:18;;;;;;;10.50;9.50;;;;;;;;;;4958163;28;20186;-45
2022/08/09 03:13:45;;;;;;;10.80;9.20;;;;;;;;;;4967739;28;20741;-45
2022/08/09 03:16:12;;;;;;;12.33;8.80;;;;;;;;;;4956051;28;20237;-45
2022/08/09 03:18:38;;;;;;;9.17;8.27;;;;;;;;;;4957064;28;20309;-45
2022/08/09 03:21:05;;;;;;;8.43;7.63;;;;;;;;;;4957023;28;20218;-45
2022/08/09 03:23:32;;;;;;;11.43;9.07;;;;;;;;;;4955955;28;20808;-45
2022/08/09 03:25:58;;;;;;;9.43;8.47;;;;;;;;;;4959947;28;20174;-45
2022/08/09 03:28:25;;;;;;;13.40;8.80;;;;;;;;;;4960550;28;20883;-44
2022/08/09 03:30:52;;;;;;;12.87;9.83;;;;;;;;;;4954802;28;20744;-46
2022/08/09 03:33:18;;;;;;;9.93;9.00;;;;;;;;;;4956960;28;20295;-45
2022/08/09 03:35:45;;;;;;;11.00;8.27;;;;;;;;;;4957209;28;20580;-45
2022/08/09 03:38:12;;;;;;;11.37;9.20;;;;;;;;;;4956820;28;20186;-45
2022/08/09 03:40:38;;;;;;;11.10;9.53;;;;;;;;;;4955510;28;20462;-45
2022/08/09 03:43:04;;;;;;;12.50;9.67;;;;;;;;;;4959829;28;20288;-45
2022/08/09 03:45:30;;;;;;;12.90;10.20;;;;;;;;;;4973571;28;20192;-45
2022/08/09 03:47:56;;;;;;;10.53;9.00;;;;;;;;;;4952837;28;20756;-45
2022/08/09 03:50:26;;;;;;;11.60;9.20;;;;;;;;;;4957877;28;20209;-45
2022/08/09 03:52:52;;;;;;;11.30;10.10;;;;;;;;;;4958374;28;20423;-45
2022/08/09 03:55:19;;;;;;;14.13;10.47;;;;;;;;;;4956786;28;20178;-45
2022/08/09 03:57:47;;;;;;;10.43;9.43;;;;;;;;;;4959140;28;20240;-45
2022/08/09 04:00:13;;;;;;;12.93;10.13;;;;;;;;;;4954551;28;20185;-45
2022/08/09 04:02:42;;;;;;;18.13;10.87;;;;;;;;;;4954021;28;20571;-45
2022/08/09 04:05:09;;;;;;;16.73;10.03;;;;;;;;;;4953949;28;20743;-45
2022/08/09 04:07:35;;;;;;;20.00;10.70;;;;;;;;;;4955325;28;20186;-45
2022/08/09 04:10:02;;;;;;;14.07;10.27;;;;;;;;;;4958346;28;20762;-45
2022/08/09 04:12:35;;;;;;;24.33;11.60;;;;;;;;;;4956719;28;20758;-45
2022/08/09 04:15:01;;;;;;;17.43;11.33;;;;;;;;;;4951597;28;20186;-45
2022/08/09 04:17:27;;;;;;;25.67;12.13;;;;;;;;;;4955325;28;20269;-45
2022/08/09 04:19:53;;;;;;;20.83;11.43;;;;;;;;;;4958801;28;20190;-45
2022/08/09 04:22:20;;;;;;;20.57;11.80;;;;;;;;;;4954503;28;20941;-45
2022/08/09 04:24:46;;;;;;;23.10;13.40;;;;;;;;;;4955716;28;20202;-45
2022/08/09 04:27:12;;;;;;;18.63;12.40;;;;;;;;;;4957736;28;20330;-45
2022/08/09 04:29:38;;;;;;;11.40;9.90;;;;;;;;;;4958287;28;20787;-45
2022/08/09 04:32:04;;;;;;;14.50;10.50;;;;;;;;;;4952479;28;20181;-45
2022/08/09 04:34:32;;;;;;;16.43;10.73;;;;;;;;;;4955170;28;20174;-45
2022/08/09 04:36:58;;;;;;;11.87;9.73;;;;;;;;;;4956466;28;20177;-45
2022/08/09 04:39:24;;;;;;;12.40;9.30;;;;;;;;;;4954049;28;20605;-45
2022/08/09 04:41:51;;;;;;;11.50;10.33;;;;;;;;;;4956968;28;20707;-45
2022/08/09 04:44:17;;;;;;;14.90;10.97;;;;;;;;;;4954215;28;20520;-45
2022/08/09 04:46:43;;;;;;;14.83;10.80;;;;;;;;;;4955942;28;20284;-45
2022/08/09 04:49:09;;;;;;;13.50;10.73;;;;;;;;;;4954749;28;20650;-45
2022/08/09 04:51:36;;;;;;;13.80;10.50;;;;;;;;;;4967023;28;20225;-46
2022/08/09 04:54:02;;;;;;;16.20;10.97;;;;;;;;;;4952397;28;20504;-45
2022/08/09 04:56:29;;;;;;;15.63;10.77;;;;;;;;;;4956177;28;20381;-45
2022/08/09 04:58:55;;;;;;;11.13;10.00;;;;;;;;;;4952700;28;20339;-45
2022/08/09 05:01:21;;;;;;;12.23;10.93;;;;;;;;;;4955959;28;20718;-44
2022/08/09 05:03:48;;;;;;;15.33;11.00;;;;;;;;;;4960627;28;20174;-45
2022/08/09 05:06:14;;;;;;;12.77;10.10;;;;;;;;;;4960219;28;20646;-46
2022/08/09 05:08:40;;;;;;;13.30;11.43;;;;;;;;;;4954585;28;20205;-45
2022/08/09 05:11:06;;;;;;;11.47;10.27;;;;;;;;;;4953091;28;20484;-45
2022/08/09 05:13:32;;;;;;;14.30;9.97;;;;;;;;;;4956337;28;20178;-45
2022/08/09 05:15:58;;;;;;;11.20;10.10;;;;;;;;;;4955447;28;20190;-45
2022/08/09 05:18:32;;;;;;;13.33;10.20;;;;;;;;;;4953647;28;20202;-45
2022/08/09 05:20:58;;;;;;;12.83;10.93;;;;;;;;;;4956016;28;20252;-45
2022/08/09 05:23:24;;;;;;;15.73;11.33;;;;;;;;;;4955567;28;20193;-45
2022/08/09 05:25:51;;;;;;;13.60;11.53;;;;;;;;;;4956104;28;20711;-45
2022/08/09 05:28:17;;;;;;;11.60;10.40;;;;;;;;;;4952826;28;20777;-45
2022/08/09 05:30:43;;;;;;;11.60;10.40;;;;;;;;;;4957695;28;21071;-45
2022/08/09 05:33:09;;;;;;;11.70;10.27;;;;;;;;;;4958504;28;20190;-45
2022/08/09 05:35:36;;;;;;;12.97;10.70;;;;;;;;;;4948936;28;21663;-46
2022/08/09 05:38:02;;;;;;;14.80;10.23;;;;;;;;;;4950565;28;20856;-45
2022/08/09 05:40:28;;;;;;;13.17;10.70;;;;;;;;;;4950414;28;20174;-45
2022/08/09 05:42:54;;;;;;;13.10;10.77;;;;;;;;;;4951974;28;20178;-45
2022/08/09 05:45:20;;;;;;;13.83;10.97;;;;;;;;;;4953433;28;20758;-45
2022/08/09 05:47:47;;;;;;;13.37;11.00;;;;;;;;;;4956054;28;20433;-46
2022/08/09 05:50:13;;;;;;;13.40;11.10;;;;;;;;;;4955460;28;20654;-45
2022/08/09 05:52:39;;;;;;;12.40;10.17;;;;;;;;;;4955317;28;20375;-46
2022/08/09 05:55:06;;;;;;;14.70;11.50;;;;;;;;;;4954447;28;20829;-45
2022/08/09 05:57:33;;;;;;;14.10;10.70;;;;;;;;;;4955713;28;20714;-45
2022/08/09 05:59:59;;;;;;;13.03;10.10;;;;;;;;;;4957194;28;20368;-45
2022/08/09 06:02:25;;;;;;;15.40;10.60;;;;;;;;;;4953413;28;20178;-46
2022/08/09 06:04:52;;;;;;;13.00;10.47;;;;;;;;;;4954824;28;20214;-45
2022/08/09 06:07:18;;;;;;;17.13;11.30;;;;;;;;;;4957415;28;20943;-45
2022/08/09 06:09:44;;;;;;;14.40;11.13;;;;;;;;;;4983910;28;20666;-45
2022/08/09 06:12:10;;;;;;;15.17;11.83;;;;;;;;;;4954726;28;20181;-45
2022/08/09 06:14:36;;;;;;;12.37;10.90;;;;;;;;;;4958188;28;20963;-45
2022/08/09 06:17:02;;;;;;;11.63;10.00;;;;;;;;;;4954996;28;21021;-45
2022/08/09 06:19:29;;;;;;;16.43;11.30;;;;;;;;;;4966583;28;20738;-46
2022/08/09 06:21:55;;;;;;;15.87;11.53;;;;;;;;;;4956988;28;20186;-45
2022/08/09 06:24:21;;;;;;;15.13;11.13;;;;;;;;;;4953739;28;20986;-46
2022/08/09 06:26:47;;;;;;;15.03;11.13;;;;;;;;;;4956654;28;20814;-45
2022/08/09 06:29:13;;;;;;;15.20;10.90;;;;;;;;;;4959838;28;20849;-45
2022/08/09 06:31:40;;;;;;;18.03;10.90;;;;;;;;;;4958609;28;20173;-45
2022/08/09 06:34:06;;;;;;;17.77;11.90;;;;;;;;;;4954137;28;20232;-46
2022/08/09 06:36:32;;;;;;;12.67;11.37;;;;;;;;;;4959340;28;20445;-45
2022/08/09 06:38:58;;;;;;;17.30;13.63;;;;;;;;;;4960248;28;20190;-45
2022/08/09 06:41:25;;;;;;;17.10;12.33;;;;;;;;;;4956387;28;20595;-45
2022/08/09 06:43:51;;;;;;;15.10;11.83;;;;;;;;;;4957530;28;20247;-45
2022/08/09 06:46:17;;;;;;;14.57;11.50;;;;;;;;;;4962172;28;20868;-45
2022/08/09 06:48:43;;;;;;;19.77;13.00;;;;;;;;;;4957104;28;20579;-46
2022/08/09 06:51:10;;;;;;;15.33;11.83;;;;;;;;;;4955777;28;20200;-45
2022/08/09 06:53:36;;;;;;;13.23;11.67;;;;;;;;;;4957732;28;20652;-45
2022/08/09 06:56:03;;;;;;;14.70;11.43;;;;;;;;;;4958759;28;20186;-46
2022/08/09 06:58:29;;;;;;;11.97;10.70;;;;;;;;;;4957540;28;20209;-45
2022/08/09 07:00:55;;;;;;;16.13;10.80;;;;;;;;;;4955587;28;20613;-46
2022/08/09 07:03:22;;;;;;;18.90;12.57;;;;;;;;;;4959590;28;20185;-45
2022/08/09 07:05:49;;;;;;;14.50;11.20;;;;;;;;;;4958345;28;20202;-46
2022/08/09 07:08:15;;;;;;;15.63;11.50;;;;;;;;;;4955127;28;20259;-45
2022/08/09 07:10:41;;;;;;;17.53;11.70;;;;;;;;;;4957641;28;20248;-45
2022/08/09 07:13:07;;;;;;;16.33;14.07;;;;;;;;;;4957573;28;20295;-45
2022/08/09 07:15:34;;;;;;;12.80;11.50;;;;;;;;;;4956339;28;20476;-46
2022/08/09 07:18:00;;;;;;;15.70;12.03;;;;;;;;;;4959698;28;20213;-45
2022/08/09 07:20:26;;;;;;;16.40;12.80;;;;;;;;;;4961033;28;21173;-45
2022/08/09 07:22:52;;;;;;;13.33;11.80;;;;;;;;;;4987450;28;20185;-45
2022/08/09 07:25:19;;;;;;;17.60;12.53;;;;;;;;;;4957102;28;20960;-46
2022/08/09 07:27:46;;;;;;;15.40;12.50;;;;;;;;;;4959490;28;20753;-46
2022/08/09 07:30:13;;;;;;;13.50;12.07;;;;;;;;;;4957974;28;20778;-45
2022/08/09 07:32:40;;;;;;;15.37;11.80;;;;;;;;;;4955340;28;20407;-45
2022/08/09 07:35:07;;;;;;;18.53;12.83;;;;;;;;;;4959104;28;20171;-46
2022/08/09 07:37:33;;;;;;;13.20;11.80;;;;;;;;;;4957208;28;20186;-46
2022/08/09 07:39:59;;;;;;;13.53;11.43;;;;;;;;;;4955512;28;20182;-45
2022/08/09 07:42:25;;;;;;;20.03;13.47;;;;;;;;;;4955243;28;20205;-45
2022/08/09 07:44:51;;;;;;;14.50;11.83;;;;;;;;;;4960067;28;20761;-45
2022/08/09 07:47:18;;;;;;;13.90;10.83;;;;;;;;;;4957119;28;20460;-45
2022/08/09 07:49:44;;;;;;;18.07;12.43;;;;;;;;;;4956811;28;20588;-45
2022/08/09 07:52:10;;;;;;;14.47;11.87;;;;;;;;;;4971358;28;20471;-45
2022/08/09 07:54:37;;;;;;;15.03;11.10;;;;;;;;;;4958946;28;20656;-45
2022/08/09 07:57:03;;;;;;;19.53;13.13;;;;;;;;;;4956321;28;20950;-45
2022/08/09 07:59:29;;;;;;;13.13;11.60;;;;;;;;;;4955120;28;20488;-45
2022/08/09 08:01:55;;;;;;;13.73;11.50;;;;;;;;;;4961398;28;20178;-45
2022/08/09 08:04:22;;;;;;;19.53;12.67;;;;;;;;;;4955078;28;20189;-46
2022/08/09 08:06:48;;;;;;;16.33;11.30;;;;;;;;;;4955960;28;20503;-45
2022/08/09 08:09:15;;;;;;;16.13;10.53;;;;;;;;;;4960080;28;20260;-46
2022/08/09 08:11:42;;;;;;;12.73;9.50;;;;;;;;;;4955616;28;20559;-46
2022/08/09 08:14:09;;;;;;;13.77;9.47;;;;;;;;;;4955733;28;20193;-46
2022/08/09 08:16:35;;;;;;;14.00;9.30;;;;;;;;;;4959928;28;20691;-46
2022/08/09 08:19:01;;;;;;;12.57;9.43;;;;;;;;;;4957078;28;20221;-45
2022/08/09 08:21:27;;;;;;;12.77;10.47;;;;;;;;;;4953630;28;20884;-46
2022/08/09 08:23:53;;;;;;;10.70;8.40;;;;;;;;;;4954027;28;20196;-45
2022/08/09 08:26:20;;;;;;;12.47;9.93;;;;;;;;;;4960347;28;20240;-46
2022/08/09 08:28:46;;;;;;;12.57;9.23;;;;;;;;;;4954090;28;20190;-46
2022/08/09 08:31:12;;;;;;;7.50;6.80;;;;;;;;;;4958438;28;20216;-46
2022/08/09 08:33:38;;;;;;;11.97;9.00;;;;;;;;;;4959571;28;20175;-46
2022/08/09 08:36:04;;;;;;;9.53;7.87;;;;;;;;;;4955353;28;20522;-46
2022/08/09 08:38:31;;;;;;;9.00;7.60;;;;;;;;;;4957340;28;20308;-45
2022/08/09 08:40:58;;;;;;;11.10;8.93;;;;;;;;;;4954751;28;20186;-46
2022/08/09 08:43:26;;;;;;;11.43;9.27;;;;;;;;;;4955921;28;21149;-46
2022/08/09 08:45:54;;;;;;;9.83;8.77;;;;;;;;;;4960167;28;20563;-46
2022/08/09 08:48:21;;;;;;;10.37;8.90;;;;;;;;;;4955615;28;20182;-45
2022/08/09 08:50:48;;;;;;;12.57;9.00;;;;;;;;;;4956845;28;20863;-46
2022/08/09 08:53:14;;;;;;;11.40;6.87;;;;;;;;;;4958178;28;20487;-46
2022/08/09 08:55:42;;;;;;;5.53;5.03;;;;;;;;;;4955726;28;20251;-46
2022/08/09 08:58:09;;;;;;;5.40;4.90;;;;;;;;;;4955371;28;20679;-46
2022/08/09 09:00:35;;;;;;;6.57;5.40;;;;;;;;;;4959617;28;20631;-46
2022/08/09 09:03:03;;;;;;;8.00;5.23;;;;;;;;;;4959570;28;20546;-46
2022/08/09 09:05:29;;;;;;;8.17;6.00;;;;;;;;;;4951716;28;20314;-46
2022/08/09 09:07:57;;;;;;;6.93;5.97;;;;;;;;;;4951849;28;20264;-46
2022/08/09 09:10:24;;;;;;;7.77;5.03;;;;;;;;;;4957427;28;20752;-46
2022/08/09 09:12:50;;;;;;;7.70;5.03;;;;;;;;;;4956763;28;20504;-46
2022/08/09 09:15:17;;;;;;;5.97;5.10;;;;;;;;;;4953002;28;20178;-46
2022/08/09 09:17:43;;;;;;;11.77;5.13;;;;;;;;;;4950597;28;20184;-46
2022/08/09 09:20:11;;;;;;;6.40;5.60;;;;;;;;;;4955278;28;20178;-46
2022/08/09 09:22:56;;;;;;;4.80;4.37;;;;;;;;;;4952200;28;20185;-46
2022/08/09 09:25:32;;;;;;;6.40;5.43;;;;;;;;;;4951434;28;20178;-46
2022/08/09 09:27:58;;;;;;;6.90;5.33;;;;;;;;;;4952547;28;20190;-45
2022/08/09 09:30:24;;;;;;;5.40;4.90;;;;;;;;;;4953837;28;20206;-44
2022/08/09 09:33:01;;;;;;;6.73;5.17;;;;;;;;;;4951366;28;20876;-44
2022/08/09 09:35:27;;;;;;;7.57;5.20;;;;;;;;;;4954731;28;20280;-44
2022/08/09 09:37:53;;;;;;;6.10;4.80;;;;;;;;;;4951846;28;20831;-44
2022/08/09 09:40:20;;;;;;;7.90;5.30;;;;;;;;;;4951193;28;20272;-44
2022/08/09 09:42:58;;;;;;;6.13;4.80;;;;;;;;;;4953319;28;20630;-45
2022/08/09 09:45:24;;;;;;;4.93;4.43;;;;;;;;;;4952928;28;20183;-45
2022/08/09 09:47:50;;;;;;;7.47;4.73;;;;;;;;;;4950506;28;20193;-45
2022/08/09 09:50:21;;;;;;;7.07;4.77;;;;;;;;;;4950871;28;21180;-45
2022/08/09 09:52:53;;;;;;;7.13;5.27;;;;;;;;;;4954409;28;20162;-45
2022/08/09 09:55:20;;;;;;;6.20;5.10;;;;;;;;;;4950043;28;20178;-44
2022/08/09 09:57:59;;;;;;;6.13;4.60;;;;;;;;;;4951084;28;20194;-45
2022/08/09 10:00:26;;;;;;;5.43;4.57;;;;;;;;;;4952362;28;20206;-45
2022/08/09 10:02:52;;;;;;;7.67;5.00;;;;;;;;;;4949772;28;20187;-44
2022/08/09 10:05:18;;;;;;;7.57;5.00;;;;;;;;;;4954141;28;20178;-45
2022/08/09 10:07:44;;;;;;;10.63;5.30;;;;;;;;;;4951624;28;20178;-44
2022/08/09 10:10:10;;;;;;;9.03;5.20;;;;;;;;;;4950092;28;20206;-45
2022/08/09 10:12:38;;;;;;;5.80;4.80;;;;;;;;;;4951995;28;20178;-45
2022/08/09 10:15:04;;;;;;;6.97;4.70;;;;;;;;;;4952916;28;20706;-44
2022/08/09 10:17:34;;;;;;;8.33;5.17;;;;;;;;;;4952811;28;20891;-44
2022/08/09 10:20:02;;;;;;;5.33;4.83;;;;;;;;;;4951847;28;20178;-45
2022/08/09 10:22:30;;;;;;;7.47;5.03;;;;;;;;;;4951151;28;20261;-44
2022/08/09 10:24:56;;;;;;;8.57;5.00;;;;;;;;;;4954081;28;20317;-45
2022/08/09 10:27:23;;;;;;;6.33;5.00;;;;;;;;;;4954197;28;20466;-45
2022/08/09 10:29:49;;;;;;;5.87;4.83;;;;;;;;;;4950631;28;20229;-45
2022/08/09 10:32:15;;;;;;;5.40;4.90;;;;;;;;;;4954065;28;20202;-44
2022/08/09 10:34:41;;;;;;;8.40;5.30;;;;;;;;;;4953494;28;20187;-44
2022/08/09 10:37:08;;;;;;;7.00;5.00;;;;;;;;;;4949520;28;20185;-45
2022/08/09 10:39:35;;;;;;;6.03;4.77;;;;;;;;;;4947019;28;20369;-45
2022/08/09 10:42:01;;;;;;;6.33;4.70;;;;;;;;;;4949823;28;20523;-45
2022/08/09 10:44:29;;;;;;;6.23;4.63;;;;;;;;;;4952195;28;20683;-44
2022/08/09 10:47:24;;;;;;;5.10;4.23;;;;;;;;;;4957734;28;20759;-45
2022/08/09 10:49:57;;;;;;;8.27;4.07;;;;;;;;;;4947052;28;20537;-45
2022/08/09 10:52:23;;;;;;;5.10;3.90;;;;;;;;;;4966458;28;20637;-44
2022/08/09 10:54:50;;;;;;;6.30;4.10;;;;;;;;;;4952787;28;20438;-44
2022/08/09 10:57:16;;;;;;;5.60;4.07;;;;;;;;;;4955675;28;20174;-45
2022/08/09 10:59:44;;;;;;;8.37;4.27;;;;;;;;;;4952109;28;20820;-45
2022/08/09 11:02:17;;;;;;;6.20;3.93;;;;;;;;;;4956648;28;20186;-44
2022/08/09 11:04:43;;;;;;;5.97;4.43;;;;;;;;;;4954815;28;20182;-45
2022/08/09 11:07:09;;;;;;;5.13;4.23;;;;;;;;;;4954841;28;20174;-45
2022/08/09 11:09:38;;;;;;;5.27;4.30;;;;;;;;;;4954693;28;20569;-44
2022/08/09 11:12:18;;;;;;;7.60;4.10;;;;;;;;;;4955777;28;20561;-45
2022/08/09 11:14:50;;;;;;;5.43;3.53;;;;;;;;;;4957436;28;21905;-45
2022/08/09 11:17:17;;;;;;;4.90;3.93;;;;;;;;;;4956569;28;20182;-45
2022/08/09 11:19:49;;;;;;;6.57;4.20;;;;;;;;;;4959263;28;20189;-45
2022/08/09 11:22:16;;;;;;;5.47;3.80;;;;;;;;;;4955903;28;20178;-45
2022/08/09 11:24:57;;;;;;;4.70;4.20;;;;;;;;;;4959834;28;20288;-45
2022/08/09 11:27:29;;;;;;;7.43;3.90;;;;;;;;;;4958389;28;20293;-45
2022/08/09 11:29:56;;;;;;;4.83;3.90;;;;;;;;;;4958456;28;20661;-45
2022/08/09 11:32:41;;;;;;;5.67;3.87;;;;;;;;;;4957004;28;20297;-45
2022/08/09 11:35:27;;;;;;;11.03;4.70;;;;;;;;;;4958471;28;20434;-45
2022/08/09 11:37:57;;;;;;;8.57;4.23;;;;;;;;;;4960026;28;20213;-45
2022/08/09 11:40:23;;;;;;;9.13;4.27;;;;;;;;;;4959179;28;20174;-44
2022/08/09 11:42:51;;;;;;;7.60;3.77;;;;;;;;;;4956380;28;20780;-45
2022/08/09 11:45:22;;;;;;;5.53;3.77;;;;;;;;;;4959192;28;20901;-45
2022/08/09 11:47:49;;;;;;;6.37;4.00;;;;;;;;;;4960146;28;20420;-45
2022/08/09 11:50:15;;;;;;;5.73;3.67;;;;;;;;;;4957459;28;20628;-45
2022/08/09 11:53:04;;;;;;;8.00;4.00;;;;;;;;;;4956340;28;20273;-45
2022/08/09 11:55:31;;;;;;;6.73;3.60;;;;;;;;;;4961975;28;20186;-44
2022/08/09 11:58:00;;;;;;;4.73;3.63;;;;;;;;;;4957751;28;20750;-44
2022/08/09 12:00:27;;;;;;;5.83;3.60;;;;;;;;;;4955895;28;20544;-45
2022/08/09 12:02:53;;;;;;;4.13;3.33;;;;;;;;;;4974543;28;20187;-44
2022/08/09 12:05:20;;;;;;;6.60;3.83;;;;;;;;;;4958834;28;20186;-44
2022/08/09 12:07:46;;;;;;;4.23;3.43;;;;;;;;;;4956407;28;20281;-45
2022/08/09 12:10:12;;;;;;;6.13;3.80;;;;;;;;;;4955835;28;20210;-45
2022/08/09 12:12:47;;;;;;;4.33;3.37;;;;;;;;;;4958992;28;20607;-45
2022/08/09 12:15:32;;;;;;;4.03;3.43;;;;;;;;;;4959962;28;20178;-45
2022/08/09 12:17:58;;;;;;;4.93;3.77;;;;;;;;;;4957047;28;20205;-45
2022/08/09 12:20:25;;;;;;;6.27;3.97;;;;;;;;;;4955691;28;20210;-44
2022/08/09 12:22:56;;;;;;;5.50;3.50;;;;;;;;;;4959040;28;20237;-45
2022/08/09 12:25:22;;;;;;;5.20;3.93;;;;;;;;;;4956296;28;20183;-44
2022/08/09 12:28:07;;;;;;;10.23;3.93;;;;;;;;;;4955750;28;20194;-45
2022/08/09 12:30:33;;;;;;;6.17;4.00;;;;;;;;;;4958998;28;20201;-44
2022/08/09 12:33:03;;;;;;;5.93;3.73;;;;;;;;;;4958754;28;20237;-44
2022/08/09 12:35:29;;;;;;;7.03;4.10;;;;;;;;;;4954941;28;20412;-44
2022/08/09 12:37:56;;;;;;;12.63;3.97;;;;;;;;;;4956850;28;20305;-45
2022/08/09 12:40:26;;;;;;;4.77;4.20;;;;;;;;;;4958776;28;20186;-44
2022/08/09 12:42:52;;;;;;;5.33;4.03;;;;;;;;;;4957929;28;20681;-45
2022/08/09 12:45:19;;;;;;;6.07;4.00;;;;;;;;;;4954200;28;20731;-45
2022/08/09 12:47:46;;;;;;;6.43;4.67;;;;;;;;;;4951991;28;20507;-45
2022/08/09 12:50:16;;;;;;;5.17;4.17;;;;;;;;;;4957357;28;20222;-44
2022/08/09 12:52:43;;;;;;;7.33;4.50;;;;;;;;;;4955386;28;20282;-45
2022/08/09 12:55:10;;;;;;;5.00;4.27;;;;;;;;;;4955837;28;20585;-44
2022/08/09 12:57:46;;;;;;;4.80;4.30;;;;;;;;;;4955239;28;20176;-44
2022/08/09 13:00:20;;;;;;;4.50;3.80;;;;;;;;;;4954259;28;20600;-45
2022/08/09 13:02:52;;;;;;;7.47;3.77;;;;;;;;;;4956910;28;20346;-45
2022/08/09 13:05:19;;;;;;;4.17;3.57;;;;;;;;;;4956561;28;20502;-44
2022/08/09 13:08:04;;;;;;;3.93;3.47;;;;;;;;;;4951619;28;20186;-45
2022/08/09 13:10:30;;;;;;;5.57;3.60;;;;;;;;;;4954152;28;20247;-44
2022/08/09 13:12:59;;;;;;;3.93;3.37;;;;;;;;;;4959003;28;20177;-44
2022/08/09 13:15:25;;;;;;;4.73;3.33;;;;;;;;;;4955293;28;20197;-45
2022/08/09 13:17:51;;;;;;;5.77;3.37;;;;;;;;;;4954062;28;20316;-44
2022/08/09 13:20:30;;;;;;;4.93;3.53;;;;;;;;;;4957321;28;20185;-45
2022/08/09 13:22:58;;;;;;;4.43;3.47;;;;;;;;;;4953830;28;20268;-44
2022/08/09 13:25:24;;;;;;;4.90;3.60;;;;;;;;;;4956217;28;20325;-44
2022/08/09 13:27:50;;;;;;;3.37;2.90;;;;;;;;;;4957976;28;20182;-44
2022/08/09 13:30:17;;;;;;;3.40;3.10;;;;;;;;;;4954571;28;20543;-44
2022/08/09 13:32:43;;;;;;;2.87;2.60;;;;;;;;;;4954849;28;20772;-44
2022/08/09 13:35:10;;;;;;;3.90;3.10;;;;;;;;;;4957311;28;20615;-45
2022/08/09 13:37:36;;;;;;;3.30;2.90;;;;;;;;;;4955920;28;20182;-45
2022/08/09 13:40:12;;;;;;;3.17;2.87;;;;;;;;;;4951746;28;20509;-45
2022/08/09 13:42:38;;;;;;;4.50;3.00;;;;;;;;;;4954587;28;21088;-45
2022/08/09 13:45:07;;;;;;;4.33;3.00;;;;;;;;;;4957783;28;21109;-45
2022/08/09 13:47:33;;;;;;;4.03;2.80;;;;;;;;;;4953963;28;20182;-45
2022/08/09 13:50:00;;;;;;;3.93;2.70;;;;;;;;;;4952157;28;20288;-45
2022/08/09 13:52:26;;;;;;;4.20;3.00;;;;;;;;;;4955310;28;20238;-45
2022/08/09 13:54:53;;;;;;;5.80;2.97;;;;;;;;;;4957129;28;20178;-45
2022/08/09 13:57:19;;;;;;;5.40;2.87;;;;;;;;;;4951905;28;20514;-45
2022/08/09 13:59:45;;;;;;;4.47;2.57;;;;;;;;;;4952358;28;20185;-45
2022/08/09 14:02:11;;;;;;;3.17;2.47;;;;;;;;;;4958319;28;20673;-45
2022/08/09 14:04:37;;;;;;;3.67;2.50;;;;;;;;;;4955107;28;20630;-54
2022/08/09 14:07:03;;;;;;;4.20;2.63;;;;;;;;;;4951380;28;20186;-45
2022/08/09 14:09:30;;;;;;;4.43;2.73;;;;;;;;;;4953226;28;20308;-44
2022/08/09 14:11:58;;;;;;;8.27;3.23;;;;;;;;;;4955875;28;20358;-45
2022/08/09 14:14:24;;;;;;;4.90;2.63;;;;;;;;;;4954064;28;20196;-45
2022/08/09 14:16:50;;;;;;;4.57;2.30;;;;;;;;;;4955461;28;20591;-45
2022/08/09 14:19:17;;;;;;;3.23;2.23;;;;;;;;;;4957967;28;20360;-45
2022/08/09 14:21:43;;;;;;;3.47;2.40;;;;;;;;;;4954096;28;20175;-45
2022/08/09 14:24:13;;;;;;;4.03;2.80;;;;;;;;;;4951119;28;20543;-45
2022/08/09 14:26:40;;;;;;;2.50;2.30;;;;;;;;;;4954014;28;20178;-45
2022/08/09 14:29:10;;;;;;;3.43;2.50;;;;;;;;;;4957119;28;20175;-45
2022/08/09 14:31:37;;;;;;;4.00;2.43;;;;;;;;;;4953426;28;20378;-45
2022/08/09 14:34:03;;;;;;;4.67;2.47;;;;;;;;;;4956674;28;20383;-45
2022/08/09 14:36:30;;;;;;;5.80;2.73;;;;;;;;;;4954973;28;20170;-45